North Platte Regional Airport Lee Bird Field North Platte US
ICAO: KLBF
IATA: LBF
Category: Medium
Scheduled Services: Yes

Elevation: 2777 ft
TransAlt. 18000 ft.

Airport Communications:
ASOS:118.425
CLNC DEL:132.7
DENVER CNTR:132.7
COLUMBUS RDO:122.5
CTAF/UNICOM:123

KLBF Zoom In..

If you have problems with the map follow the link
https://www.worldairports.se/pages/airport.php?
ICAO=KLBF

Runways:

(A) RW 12 length 8001 ft width 150 ft
---- / hdg 117

(B) RW 17 length 4436 ft width 100 ft
---- / hdg 172

(C) RW 30 length 8001 ft width 150 ft
ILS 111.50 / hdg 297

(D) RW 35 length 4436 ft width 100 ft
---- / hdg 352

Location; KLBF
Day. 14 / Time. 11.53 Zulu
* Altimeter: 30.33
* Temperature: -07° c. -19.4°f.
* Wind from: 330° Speed 04 kn.
Dewpoint: -09° c.
Visibility: 10 Statute Miles.
Clouds: Clear (automated report).

KLBF 141153Z AUTO 33004KT 10SM CLR M07/M09 A3033 RMK AO2 SLP300 T10671089 11056 21078 55005


Wind From 330°
Speed 04 kn.

 
 
jpsmedia.com for Web Design worldairports.se 2018   terms of use